createdAt,value
2019-01-02T00:00:42.230Z,96324.19
2019-01-02T00:06:37.023Z,96317.39
2019-01-02T00:09:14.818Z,96323.38
2019-01-02T00:11:49.721Z,96334.41
2019-01-02T00:14:44.358Z,96335.42
2019-01-02T00:17:15.403Z,96333.79
2019-01-02T00:19:59.550Z,96320.13
2019-01-02T00:22:49.497Z,96315.86
2019-01-02T00:25:58.403Z,96310.78
2019-01-02T00:28:48.195Z,96309.66
2019-01-02T00:34:21.824Z,96321.13
2019-01-02T00:37:20.013Z,96316.55
2019-01-02T00:39:50.958Z,96315.23
2019-01-02T00:42:40.823Z,96325.87
2019-01-02T00:45:11.673Z,96334.27
2019-01-02T00:48:21.111Z,96339.53
2019-01-02T00:50:46.160Z,96349.82
2019-01-02T00:53:17.024Z,96365.18
2019-01-02T00:55:59.322Z,96358.50
2019-01-02T00:58:42.056Z,96358.75
2019-01-02T01:01:13.225Z,96354.59
2019-01-02T01:03:44.025Z,96353.64
2019-01-02T01:06:34.231Z,96350.04
2019-01-02T01:09:11.865Z,96355.43
2019-01-02T01:11:42.794Z,96354.36
2019-01-02T01:14:14.121Z,96349.87
2019-01-02T01:16:44.978Z,96359.59
2019-01-02T01:19:55.683Z,96361.91
2019-01-02T01:22:37.402Z,96359.03
2019-01-02T01:25:08.314Z,96353.98
2019-01-02T01:27:50.945Z,96353.17
2019-01-02T01:30:33.567Z,96353.95
2019-01-02T01:33:04.735Z,96355.08
2019-01-02T01:35:35.564Z,96364.79
2019-01-02T01:38:17.830Z,96375.54
2019-01-02T01:41:00.045Z,96370.27
2019-01-02T01:43:30.804Z,96368.64
2019-01-02T01:46:01.642Z,96367.65
2019-01-02T01:48:44.482Z,96384.06
2019-01-02T01:51:26.490Z,96363.07
2019-01-02T01:53:57.384Z,96369.28
2019-01-02T01:56:35.555Z,96372.66
2019-01-02T01:59:25.462Z,96378.92
2019-01-02T02:01:56.222Z,96377.30
2019-01-02T02:04:27.048Z,96376.48
2019-01-02T02:07:10.153Z,96379.74
2019-01-02T02:09:53.334Z,96374.98
2019-01-02T02:12:24.157Z,96374.16
2019-01-02T02:15:15.671Z,96381.37
2019-01-02T02:17:53.396Z,96379.24
2019-01-02T02:20:24.189Z,96390.86
2019-01-02T02:23:06.508Z,96383.50
2019-01-02T02:25:49.236Z,96372.98
2019-01-02T02:28:20.572Z,96379.66
2019-01-02T02:30:51.341Z,96375.30
2019-01-02T02:33:54.123Z,96376.92
2019-01-02T02:39:09.173Z,96378.84
2019-01-02T02:41:59.222Z,96383.60
2019-01-02T02:44:40.716Z,96378.97
2019-01-02T02:47:11.559Z,96384.23
2019-01-02T02:50:13.207Z,96391.44
2019-01-02T02:52:44.044Z,96383.91
2019-01-02T02:55:18.001Z,96383.60
2019-01-02T02:58:04.508Z,96387.23
2019-01-02T03:00:35.441Z,96386.73
2019-01-02T03:03:32.128Z,96384.41
2019-01-02T03:06:02.924Z,96389.68
2019-01-02T03:08:33.705Z,96390.86
2019-01-02T03:11:15.655Z,96398.08
2019-01-02T03:13:58.603Z,96390.49
2019-01-02T03:19:11.568Z,96399.64
2019-01-02T03:21:53.109Z,96394.75
2019-01-02T03:24:24.028Z,96397.08
2019-01-02T03:27:05.905Z,96393.44
2019-01-02T03:29:48.503Z,96389.21
2019-01-02T03:32:19.346Z,96386.48
2019-01-02T03:35:10.885Z,96386.58
2019-01-02T03:37:54.254Z,96384.77
2019-01-02T03:40:25.110Z,96397.23
2019-01-02T03:43:22.385Z,96391.66
2019-01-02T03:46:11.955Z,96387.20
2019-01-02T03:51:47.400Z,96402.31
2019-01-02T03:57:09.621Z,96409.17
2019-01-02T03:59:40.446Z,96394.70
2019-01-02T04:02:11.256Z,96403.19
2019-01-02T04:04:54.074Z,96404.22
2019-01-02T04:07:36.066Z,96395.01
2019-01-02T04:10:09.893Z,96415.53
2019-01-02T04:12:40.683Z,96411.59
2019-01-02T04:15:31.005Z,96438.35
2019-01-02T04:18:01.827Z,96420.18
2019-01-02T04:20:32.922Z,96425.13
2019-01-02T04:23:43.304Z,96432.72
2019-01-02T04:26:14.248Z,96439.11
2019-01-02T04:28:46.655Z,96459.67
2019-01-02T04:31:29.283Z,96459.86
2019-01-02T04:34:19.065Z,96454.27
2019-01-02T04:36:49.926Z,96460.54
2019-01-02T04:39:32.469Z,96465.75
2019-01-02T04:42:03.275Z,96470.80
2019-01-02T04:44:34.078Z,96470.61
2019-01-02T04:47:04.905Z,96477.70
2019-01-02T04:49:35.731Z,96479.52
2019-01-02T04:52:06.599Z,96476.06
2019-01-02T04:54:37.497Z,96475.25
2019-01-02T04:57:08.276Z,96480.02
2019-01-02T04:59:39.415Z,96483.14
2019-01-02T05:02:29.882Z,96486.91
2019-01-02T05:05:01.001Z,96491.36
2019-01-02T05:07:31.953Z,96484.78
2019-01-02T05:10:14.478Z,96490.86
2019-01-02T05:12:56.315Z,96483.77
2019-01-02T05:15:27.115Z,96491.86
2019-01-02T05:17:57.909Z,96499.26
2019-01-02T05:20:40.616Z,96505.34
2019-01-02T05:23:22.696Z,96499.16
2019-01-02T05:25:53.688Z,96506.74
2019-01-02T05:28:24.459Z,96502.98
2019-01-02T05:31:06.428Z,96510.19
2019-01-02T05:33:48.406Z,96508.16
2019-01-02T05:36:19.289Z,96509.47
2019-01-02T05:41:52.658Z,96509.69
2019-01-02T05:44:23.478Z,96520.72
2019-01-02T05:47:51.059Z,96521.72
2019-01-02T05:53:26.192Z,96540.83
2019-01-02T05:56:08.236Z,96540.15
2019-01-02T05:58:39.075Z,96540.15
2019-01-02T06:01:17.962Z,96547.41
2019-01-02T06:03:48.750Z,96555.81
2019-01-02T06:06:19.496Z,96560.44
2019-01-02T06:08:50.296Z,96572.11
2019-01-02T06:11:21.091Z,96565.58
2019-01-02T06:13:51.838Z,96571.73
2019-01-02T06:16:22.646Z,96566.47
2019-01-02T06:19:04.560Z,96574.69
2019-01-02T06:21:47.007Z,96566.47
2019-01-02T06:26:59.910Z,96578.50
2019-01-02T06:29:41.972Z,96570.92
2019-01-02T06:32:12.881Z,96567.11
2019-01-02T06:34:43.678Z,96575.87
2019-01-02T06:37:33.708Z,96576.05
2019-01-02T06:40:04.968Z,96572.78
2019-01-02T06:42:35.791Z,96582.31
2019-01-02T06:45:37.363Z,96590.20
2019-01-02T06:48:22.550Z,96595.28
2019-01-02T06:51:01.870Z,96593.47
2019-01-02T06:53:44.455Z,96594.47
2019-01-02T06:56:15.292Z,96594.29
2019-01-02T06:58:46.121Z,96614.53
2019-01-02T07:01:39.232Z,96608.27
2019-01-02T07:04:28.893Z,96618.66
2019-01-02T07:06:59.884Z,96622.92
2019-01-02T07:09:44.711Z,96625.06
2019-01-02T07:12:27.458Z,96632.00
2019-01-02T07:14:58.424Z,96637.91
2019-01-02T07:17:29.213Z,96632.95
2019-01-02T07:20:19.360Z,96635.27
2019-01-02T07:22:50.265Z,96642.67
2019-01-02T07:28:20.389Z,96645.66
2019-01-02T07:30:51.484Z,96642.03
2019-01-02T07:33:43.428Z,96633.95
2019-01-02T07:36:52.220Z,96637.22
2019-01-02T07:40:01.077Z,96625.06
2019-01-02T07:42:47.200Z,96633.64
2019-01-02T07:46:09.530Z,96639.40
2019-01-02T07:49:18.368Z,96627.73
2019-01-02T07:52:27.437Z,96637.58
2019-01-02T07:55:36.274Z,96632.31
2019-01-02T07:58:45.443Z,96641.34
2019-01-02T08:01:57.017Z,96632.27
2019-01-02T08:05:06.160Z,96630.45
2019-01-02T08:11:37.455Z,96629.46
2019-01-02T08:14:46.214Z,96627.51
2019-01-02T08:17:55.307Z,96619.30
2019-01-02T08:21:05.645Z,96628.33
2019-01-02T08:23:48.481Z,96626.69
2019-01-02T08:26:31.235Z,96629.96
2019-01-02T08:29:25.974Z,96642.80
2019-01-02T08:35:59.455Z,96632.70
2019-01-02T08:39:08.515Z,96637.47
2019-01-02T08:42:55.129Z,96639.28
2019-01-02T08:46:04.334Z,96641.73
2019-01-02T08:49:13.100Z,96649.13
2019-01-02T08:52:21.968Z,96650.72
2019-01-02T08:55:30.850Z,96658.16
2019-01-02T08:58:40.150Z,96653.89
2019-01-02T09:01:48.905Z,96669.19
2019-01-02T09:04:57.983Z,96665.02
2019-01-02T09:08:06.899Z,96662.67
2019-01-02T09:11:15.993Z,96672.09
2019-01-02T09:14:24.763Z,96673.52
2019-01-02T09:17:33.862Z,96678.78
2019-01-02T09:20:28.301Z,96685.58
2019-01-02T09:23:37.383Z,96690.31
2019-01-02T09:26:46.153Z,96698.75
2019-01-02T09:29:55.061Z,96688.39
2019-01-02T09:33:05.489Z,96686.37
2019-01-02T09:36:16.114Z,96691.03
2019-01-02T09:39:24.962Z,96695.72
2019-01-02T09:45:24.645Z,96693.97
2019-01-02T09:48:33.804Z,96691.87
2019-01-02T09:51:42.584Z,96698.45
2019-01-02T09:54:51.774Z,96717.25
2019-01-02T10:01:02.352Z,96710.20
2019-01-02T10:04:11.218Z,96718.10
2019-01-02T10:07:19.993Z,96732.45
2019-01-02T10:10:30.375Z,96739.02
2019-01-02T10:13:39.460Z,96757.66
2019-01-02T10:20:02.752Z,96758.38
2019-01-02T10:23:19.641Z,96745.64
2019-01-02T10:26:28.673Z,96745.80
2019-01-02T10:29:37.466Z,96733.00
2019-01-02T10:32:46.564Z,96726.66
2019-01-02T10:35:56.397Z,96730.55
2019-01-02T10:39:05.513Z,96718.63
2019-01-02T10:42:14.229Z,96726.52
2019-01-02T10:45:23.393Z,96719.62
2019-01-02T10:48:32.178Z,96726.32
2019-01-02T10:51:42.824Z,96727.92
2019-01-02T10:54:42.405Z,96735.68
2019-01-02T11:01:00.811Z,96773.71
2019-01-02T11:04:09.885Z,96777.75
2019-01-02T11:07:12.451Z,96772.34
2019-01-02T11:10:21.515Z,96764.19
2019-01-02T11:13:30.319Z,96769.70
2019-01-02T11:16:39.106Z,96764.56
2019-01-02T11:19:47.861Z,96769.20
2019-01-02T11:22:56.767Z,96775.36
2019-01-02T11:26:08.050Z,96776.22
2019-01-02T11:29:17.148Z,96780.64
2019-01-02T11:32:25.876Z,96782.31
2019-01-02T11:35:34.955Z,96784.91
2019-01-02T11:38:44.241Z,96797.06
2019-01-02T11:41:37.858Z,96778.66
2019-01-02T11:44:41.288Z,96787.02
2019-01-02T11:47:12.479Z,96787.23
2019-01-02T11:50:02.578Z,96798.03
2019-01-02T11:52:33.376Z,96795.66
2019-01-02T11:55:09.829Z,96807.64
2019-01-02T11:57:54.343Z,96795.91
2019-01-02T12:00:27.015Z,96805.23
2019-01-02T12:03:11.827Z,96809.89
2019-01-02T12:05:56.499Z,96803.97
2019-01-02T12:08:47.159Z,96814.00
2019-01-02T12:14:09.509Z,96811.22
2019-01-02T12:20:02.197Z,96830.11
2019-01-02T12:22:51.969Z,96844.27
2019-01-02T12:25:22.814Z,96835.58
2019-01-02T12:28:14.093Z,96838.00
2019-01-02T12:30:59.535Z,96838.70
2019-01-02T12:33:22.984Z,96844.03
2019-01-02T12:36:04.958Z,96843.14
2019-01-02T12:41:17.933Z,96847.41
2019-01-02T12:44:00.596Z,96845.45
2019-01-02T12:46:31.393Z,96850.37
2019-01-02T12:49:02.174Z,96847.53
2019-01-02T12:51:44.148Z,96848.41
2019-01-02T12:54:26.043Z,96859.87
2019-01-02T12:59:39.790Z,96859.17
2019-01-02T13:02:22.637Z,96861.95
2019-01-02T13:05:33.890Z,96875.13
2019-01-02T13:08:49.583Z,96886.13
2019-01-02T13:11:58.399Z,96895.67
2019-01-02T13:15:19.776Z,96895.02
2019-01-02T13:18:23.354Z,96886.08
2019-01-02T13:21:35.686Z,96882.70
2019-01-02T13:24:44.462Z,96893.33
2019-01-02T13:27:53.835Z,96894.80
2019-01-02T13:30:57.529Z,96902.53
2019-01-02T13:34:25.083Z,96899.31
2019-01-02T13:37:33.899Z,96895.64
2019-01-02T13:40:42.967Z,96908.17
2019-01-02T13:44:15.135Z,96897.50
2019-01-02T13:47:24.257Z,96907.87
2019-01-02T13:50:33.068Z,96907.11
2019-01-02T13:53:06.448Z,96900.77
2019-01-02T13:55:56.633Z,96927.55
2019-01-02T13:58:27.680Z,96921.80
2019-01-02T14:04:19.359Z,96933.31
2019-01-02T14:06:50.476Z,96937.42
2019-01-02T14:09:40.497Z,96940.39
2019-01-02T14:12:37.965Z,96933.97
2019-01-02T14:15:11.691Z,96949.10
2019-01-02T14:17:44.568Z,96953.05
2019-01-02T14:20:16.479Z,96959.61
2019-01-02T14:23:06.450Z,96963.23
2019-01-02T14:25:56.440Z,96966.36
2019-01-02T14:29:05.687Z,96983.00
2019-01-02T14:31:38.766Z,96985.48
2019-01-02T14:34:20.799Z,96993.75
2019-01-02T14:37:29.332Z,96992.80
2019-01-02T14:40:01.310Z,96995.27
2019-01-02T14:42:34.751Z,96996.59
2019-01-02T14:45:06.333Z,96997.73
2019-01-02T14:47:56.441Z,97001.84
2019-01-02T14:53:49.827Z,97009.27
2019-01-02T14:56:21.011Z,97012.56
2019-01-02T14:59:11.166Z,97012.89
2019-01-02T15:01:44.104Z,97018.47
2019-01-02T15:04:14.891Z,97023.73
2019-01-02T15:06:45.658Z,97024.06
2019-01-02T15:09:31.298Z,97027.38
2019-01-02T15:12:21.190Z,97032.63
2019-01-02T15:17:56.521Z,97049.38
2019-01-02T15:23:44.375Z,97053.49
2019-01-02T15:29:32.382Z,97050.86
2019-01-02T15:32:22.430Z,97061.38
2019-01-02T15:44:05.594Z,97067.48
2019-01-02T15:46:49.232Z,97072.73
2019-01-02T15:49:31.437Z,97069.78
2019-01-02T15:52:02.500Z,97073.03
2019-01-02T15:54:55.487Z,97078.48
2019-01-02T15:57:45.393Z,97078.98
2019-01-02T16:00:37.449Z,97081.60
2019-01-02T16:06:27.419Z,97086.99
2019-01-02T16:08:58.228Z,97094.39
2019-01-02T16:11:29.047Z,97098.66
2019-01-02T16:14:16.810Z,97105.88
2019-01-02T16:16:43.785Z,97119.20
2019-01-02T16:22:38.201Z,97117.09
2019-01-02T16:25:12.307Z,97122.02
2019-01-02T16:28:04.451Z,97133.67
2019-01-02T16:30:35.490Z,97140.09
2019-01-02T16:33:45.699Z,97138.60
2019-01-02T16:36:18.142Z,97141.41
2019-01-02T16:39:09.786Z,97141.39
2019-01-02T16:41:40.602Z,97151.08
2019-01-02T16:44:11.715Z,97145.83
2019-01-02T16:46:54.446Z,97150.09
2019-01-02T16:49:37.230Z,97151.58
2019-01-02T16:52:28.033Z,97160.94
2019-01-02T16:54:59.175Z,97164.86
2019-01-02T16:57:44.319Z,97176.99
2019-01-02T17:00:26.773Z,97177.01
2019-01-02T17:02:58.023Z,97179.63
2019-01-02T17:05:52.021Z,97175.99
2019-01-02T17:11:36.919Z,97170.90
2019-01-02T17:14:27.931Z,97175.99
2019-01-02T17:16:58.847Z,97177.80
2019-01-02T17:19:49.007Z,97181.87
2019-01-02T17:26:05.204Z,97190.27
2019-01-02T17:28:38.492Z,97208.12
2019-01-02T17:31:28.535Z,97220.27
2019-01-02T17:34:18.117Z,97223.88
2019-01-02T17:37:01.472Z,97221.57
2019-01-02T17:39:44.055Z,97218.11
2019-01-02T17:42:15.464Z,97215.94
2019-01-02T17:45:00.536Z,97207.22
2019-01-02T17:47:53.060Z,97217.38
2019-01-02T17:50:24.461Z,97225.10
2019-01-02T17:53:36.301Z,97227.55
2019-01-02T17:56:09.986Z,97221.11
2019-01-02T18:02:02.039Z,97227.15
2019-01-02T18:07:30.505Z,97231.69
2019-01-02T18:10:20.770Z,97231.50
2019-01-02T18:12:53.886Z,97236.11
2019-01-02T18:15:24.683Z,97244.42
2019-01-02T18:17:55.519Z,97243.30
2019-01-02T18:21:04.511Z,97247.53
2019-01-02T18:23:54.374Z,97248.20
2019-01-02T18:26:53.443Z,97250.48
2019-01-02T18:29:24.303Z,97253.56
2019-01-02T18:31:56.319Z,97262.09
2019-01-02T18:34:38.404Z,97256.03
2019-01-02T18:37:20.729Z,97260.94
2019-01-02T18:39:51.647Z,97269.44
2019-01-02T18:42:44.241Z,97268.31
2019-01-02T18:45:34.098Z,97273.94
2019-01-02T18:48:05.073Z,97262.63
2019-01-02T18:50:47.854Z,97275.58
2019-01-02T18:53:41.674Z,97275.58
2019-01-02T18:59:33.941Z,97288.70
2019-01-02T19:05:09.813Z,97295.25
2019-01-02T19:07:40.634Z,97301.32
2019-01-02T19:11:09.184Z,97302.14
2019-01-02T19:13:41.573Z,97301.84
2019-01-02T19:16:46.557Z,97294.66
2019-01-02T19:19:24.718Z,97300.69
2019-01-02T19:22:33.816Z,97308.56
2019-01-02T19:27:47.386Z,97322.20
2019-01-02T19:30:37.266Z,97315.83
2019-01-02T19:33:08.351Z,97316.31
2019-01-02T19:35:51.295Z,97327.00
2019-01-02T19:38:33.351Z,97324.52
2019-01-02T19:47:28.780Z,97324.19
2019-01-02T19:50:37.996Z,97332.39
2019-01-02T19:53:11.399Z,97335.84
2019-01-02T19:59:17.320Z,97328.12
2019-01-02T20:11:16.718Z,97344.69
2019-01-02T20:13:47.690Z,97348.47
2019-01-02T20:16:37.471Z,97348.96
2019-01-02T20:19:10.019Z,97349.93
2019-01-02T20:25:18.479Z,97339.28
2019-01-02T20:28:02.427Z,97342.88
2019-01-02T20:30:49.175Z,97345.95
2019-01-02T20:36:14.447Z,97335.41
2019-01-02T20:39:14.845Z,97338.17
2019-01-02T20:44:48.159Z,97326.48
2019-01-02T20:47:19.567Z,97330.41
2019-01-02T20:50:10.252Z,97330.40
2019-01-02T20:52:41.747Z,97326.56
2019-01-02T20:55:50.751Z,97320.83
2019-01-02T20:58:22.226Z,97319.77
2019-01-02T21:01:12.265Z,97319.43
2019-01-02T21:09:15.392Z,97326.39
2019-01-02T21:11:46.299Z,97321.48
2019-01-02T21:14:36.831Z,97322.80
2019-01-02T21:17:07.650Z,97326.73
2019-01-02T21:23:05.933Z,97329.85
2019-01-02T21:25:37.618Z,97332.13
2019-01-02T21:28:21.011Z,97336.05
2019-01-02T21:34:39.096Z,97338.47
2019-01-02T21:37:30.496Z,97346.48
2019-01-02T21:43:14.677Z,97342.06
2019-01-02T21:48:27.205Z,97347.84
2019-01-02T21:54:21.525Z,97336.53
2019-01-02T21:57:31.135Z,97346.53
2019-01-02T22:00:22.510Z,97348.87
2019-01-02T22:03:12.891Z,97342.86
2019-01-02T22:08:50.727Z,97342.53
2019-01-02T22:11:40.533Z,97344.02
2019-01-02T22:14:11.573Z,97341.56
2019-01-02T22:17:03.152Z,97347.47
2019-01-02T22:19:44.555Z,97348.73
2019-01-02T22:22:26.781Z,97354.50
2019-01-02T22:28:13.423Z,97339.62
2019-01-02T22:30:55.388Z,97345.98
2019-01-02T22:33:26.431Z,97345.16
2019-01-02T22:36:18.092Z,97342.38
2019-01-02T22:39:09.327Z,97351.55
2019-01-02T22:41:40.539Z,97353.36
2019-01-02T22:44:25.793Z,97357.95
2019-01-02T22:46:56.593Z,97364.66
2019-01-02T22:49:27.413Z,97367.12
2019-01-02T22:52:38.780Z,97367.91
2019-01-02T22:58:23.895Z,97371.97
2019-01-02T23:01:20.206Z,97379.01
2019-01-02T23:04:10.213Z,97381.97
2019-01-02T23:06:59.865Z,97384.78
2019-01-02T23:12:51.772Z,97382.80
2019-01-02T23:15:34.430Z,97372.36
2019-01-02T23:18:27.246Z,97380.22
2019-01-02T23:21:17.478Z,97374.47
2019-01-02T23:24:21.413Z,97373.67
2019-01-02T23:27:03.887Z,97380.05
2019-01-02T23:29:53.957Z,97380.53
2019-01-02T23:32:43.846Z,97378.58
2019-01-02T23:35:33.428Z,97376.78
2019-01-02T23:38:20.657Z,97390.05
2019-01-02T23:41:29.249Z,97387.08
2019-01-02T23:44:11.186Z,97385.00
2019-01-02T23:47:00.942Z,97388.10
2019-01-02T23:49:50.840Z,97388.88
2019-01-02T23:52:40.461Z,97390.53
2019-01-02T23:55:30.382Z,97393.98
2019-01-02T23:58:32.520Z,97401.89
